F\v Desperado — FVFQ — position and weather

sailwx.info

Track history (hours):
 
Tides and Currents Weather Stations Pressure Air Temp Water Temp Dewpoint Dewpoint Depression Visibility Wind Speed Wind Dir Waves Ship Positions

F\v Desperado

Last reported at 2015-Jul-24 04:26 UTC. Time now 2015-Jul-28 08:19 UTC.
Position N 47°53' W 003°55'.

Type: Fishing. MMSI: 228312000.

Date/timePositionNaut miles runAvg speedWind from/ knotsBaromVisibWave heightAir tempDewpointWater temp
2015-Jul-24 04:26N 47°53' W 003°55'0 0.0
2015-Jul-23 23:12N 47°53' W 003°55'0 0.0
2015-Jul-23 20:20N 47°53' W 003°55'3 1.3
2015-Jul-23 18:16N 47°50' W 003°56'7 8.7
2015-Jul-23 17:30N 47°43' W 003°55'9 8.8
2015-Jul-23 16:29N 47°35' W 003°51'8 8.5
2015-Jul-23 15:30N 47°27' W 003°47'8 8.7
2015-Jul-23 14:33N 47°19' W 003°42'68 1.9
2015-Jul-22 03:15N 46°23' W 002°46'5 7.2
2015-Jul-22 02:33N 46°24' W 002°39'10 7.3
2015-Jul-22 01:11N 46°25' W 002°25'5 7.3
2015-Jul-22 00:33N 46°25' W 002°18'8 8.0
2015-Jul-21 23:33N 46°26' W 002°06'8 8.0
2015-Jul-21 22:33N 46°27' W 001°55'6 6.0
2015-Jul-21 21:33N 46°30' W 001°47'1 0.5
2015-Jul-21 20:33N 46°29' W 001°48'7 7.2
2015-Jul-21 19:32N 46°26' W 001°57'35 8.1
2015-Jul-21 15:10N 46°15' W 002°46'2 2.8
2015-Jul-21 14:33N 46°17' W 002°47'4 3.4
2015-Jul-21 13:31N 46°20' W 002°50'2 1.2
2015-Jul-21 11:29N 46°17' W 002°50'3 3.4
2015-Jul-21 10:32N 46°20' W 002°53'3 0.9
2015-Jul-21 07:31N 46°18' W 002°50'3 3.5
2015-Jul-21 06:32N 46°21' W 002°53'1 0.7
2015-Jul-21 04:33N 46°19' W 002°52'2 1.6
2015-Jul-21 03:30N 46°21' W 002°52'3 3.2
2015-Jul-21 02:26N 46°24' W 002°53'3 3.0
2015-Jul-21 01:33N 46°27' W 002°53'3 3.2
2015-Jul-21 00:30N 46°30' W 002°55'6 1.5
2015-Jul-20 20:31N 46°25' W 002°58'4 3.6
2015-Jul-20 19:24N 46°26' W 003°04'3 2.8
2015-Jul-20 18:29N 46°28' W 003°06'10 2.0
2015-Jul-20 13:31N 46°21' W 002°57'3 2.6
2015-Jul-20 12:25N 46°24' W 002°55'3 1.1
2015-Jul-20 09:26N 46°21' W 002°53'29 3.0
2015-Jul-19 23:33N 46°27' W 002°12'7 6.9
2015-Jul-19 22:33N 46°27' W 002°02'7 7.5
2015-Jul-19 21:33N 46°27' W 001°51'4 3.6
2015-Jul-19 20:33N 46°30' W 001°47'0 0.2
2015-Jul-19 19:33N 46°30' W 001°47'6 6.1
2015-Jul-19 18:33N 46°26' W 001°55'40 2.0
2015-Jul-18 22:22N 46°22' W 002°52'9 3.1
2015-Jul-18 19:31N 46°14' W 002°48'1 0.3
2015-Jul-18 14:12N 46°12' W 002°48'9 1.2
2015-Jul-18 06:33N 46°16' W 002°36'8 8.3
2015-Jul-18 05:33N 46°19' W 002°25'8 7.9
2015-Jul-18 04:31N 46°22' W 002°13'8 8.0
2015-Jul-18 03:33N 46°24' W 002°03'8 7.9
2015-Jul-18 02:33N 46°27' W 001°52'5 4.5
2015-Jul-18 01:33N 46°30' W 001°47'0 0.0
2015-Jul-18 00:33N 46°30' W 001°47'0 0.0
2015-Jul-17 23:33N 46°30' W 001°47'0 0.0
2015-Jul-17 22:33N 46°30' W 001°47'0 0.0
2015-Jul-17 21:33N 46°30' W 001°47'0 0.0
2015-Jul-17 20:33N 46°30' W 001°47'5 4.8
2015-Jul-17 19:33N 46°27' W 001°53'46 2.3
2015-Jul-16 23:31N 46°19' W 002°58'2 2.4
2015-Jul-16 22:32N 46°17' W 002°59'11 0.7
2015-Jul-16 07:25N 46°18' W 002°43'6 6.7
2015-Jul-16 06:33N 46°20' W 002°35'9 8.7
2015-Jul-16 05:33N 46°22' W 002°23'8 8.4
2015-Jul-16 04:33N 46°24' W 002°11'8 8.1
2015-Jul-16 03:33N 46°26' W 001°60'8 8.0
2015-Jul-16 02:33N 46°28' W 001°48'2 2.2
2015-Jul-16 01:33N 46°30' W 001°47'7 7.0
2015-Jul-16 00:33N 46°26' W 001°56'25 8.2
2015-Jul-15 21:30N 46°18' W 002°30'7 7.5
2015-Jul-15 20:33N 46°16' W 002°40'5 2.6
2015-Jul-15 18:32N 46°11' W 002°41'2 1.3
2015-Jul-15 17:04N 46°09' W 002°42'1 0.8
2015-Jul-15 16:13N 46°09' W 002°41'2 0.9
2015-Jul-15 14:09N 46°08' W 002°38'2 0.6
2015-Jul-15 10:31N 46°10' W 002°40'4 0.5
2015-Jul-15 03:05N 46°13' W 002°44'4 4.6
2015-Jul-15 02:13N 46°16' W 002°48'3 3.1
2015-Jul-15 01:24N 46°18' W 002°49'3 3.4
2015-Jul-15 00:31N 46°21' W 002°51'14 3.1
2015-Jul-14 20:06N 46°10' W 002°40'1 0.2
2015-Jul-14 15:13N 46°09' W 002°40'1 1.1
2015-Jul-14 14:08N 46°09' W 002°42'1 0.6
2015-Jul-14 12:28N 46°09' W 002°41'3 2.7
2015-Jul-14 11:27N 46°11' W 002°42'1 0.8
2015-Jul-14 10:29N 46°11' W 002°43'1 0.8
2015-Jul-14 09:11N 46°10' W 002°44'2 2.9
2015-Jul-14 08:26N 46°11' W 002°42'5 5.7
2015-Jul-14 07:30N 46°14' W 002°36'8 8.6
2015-Jul-14 06:32N 46°18' W 002°24'11 8.4
2015-Jul-14 05:13N 46°22' W 002°09'6 8.4
2015-Jul-14 04:33N 46°24' W 002°02'  
Track history (hours):
 
Tides and Currents Weather Stations Pressure Air Temp Water Temp Dewpoint Dewpoint Depression Visibility Wind Speed Wind Dir Waves Ship Positions

F\v Desperado

Last reported at 2015-Jul-24 04:26 UTC. Time now 2015-Jul-28 08:19 UTC.
Position N 47°53' W 003°55'.

Type: Fishing. MMSI: 228312000.

Date/timePositionNaut miles runAvg speedWind from/ knotsBaromVisibWave heightAir tempDewpointWater temp
2015-Jul-24 04:26N 47°53' W 003°55'0 0.0
2015-Jul-23 23:12N 47°53' W 003°55'0 0.0
2015-Jul-23 20:20N 47°53' W 003°55'3 1.3
2015-Jul-23 18:16N 47°50' W 003°56'7 8.7
2015-Jul-23 17:30N 47°43' W 003°55'9 8.8
2015-Jul-23 16:29N 47°35' W 003°51'8 8.5
2015-Jul-23 15:30N 47°27' W 003°47'8 8.7
2015-Jul-23 14:33N 47°19' W 003°42'68 1.9
2015-Jul-22 03:15N 46°23' W 002°46'5 7.2
2015-Jul-22 02:33N 46°24' W 002°39'10 7.3
2015-Jul-22 01:11N 46°25' W 002°25'5 7.3
2015-Jul-22 00:33N 46°25' W 002°18'8 8.0
2015-Jul-21 23:33N 46°26' W 002°06'8 8.0
2015-Jul-21 22:33N 46°27' W 001°55'6 6.0
2015-Jul-21 21:33N 46°30' W 001°47'1 0.5
2015-Jul-21 20:33N 46°29' W 001°48'7 7.2
2015-Jul-21 19:32N 46°26' W 001°57'35 8.1
2015-Jul-21 15:10N 46°15' W 002°46'2 2.8
2015-Jul-21 14:33N 46°17' W 002°47'4 3.4
2015-Jul-21 13:31N 46°20' W 002°50'2 1.2
2015-Jul-21 11:29N 46°17' W 002°50'3 3.4
2015-Jul-21 10:32N 46°20' W 002°53'3 0.9
2015-Jul-21 07:31N 46°18' W 002°50'3 3.5
2015-Jul-21 06:32N 46°21' W 002°53'1 0.7
2015-Jul-21 04:33N 46°19' W 002°52'2 1.6
2015-Jul-21 03:30N 46°21' W 002°52'3 3.2
2015-Jul-21 02:26N 46°24' W 002°53'3 3.0
2015-Jul-21 01:33N 46°27' W 002°53'3 3.2
2015-Jul-21 00:30N 46°30' W 002°55'6 1.5
2015-Jul-20 20:31N 46°25' W 002°58'4 3.6
2015-Jul-20 19:24N 46°26' W 003°04'3 2.8
2015-Jul-20 18:29N 46°28' W 003°06'10 2.0
2015-Jul-20 13:31N 46°21' W 002°57'3 2.6
2015-Jul-20 12:25N 46°24' W 002°55'3 1.1
2015-Jul-20 09:26N 46°21' W 002°53'29 3.0
2015-Jul-19 23:33N 46°27' W 002°12'7 6.9
2015-Jul-19 22:33N 46°27' W 002°02'7 7.5
2015-Jul-19 21:33N 46°27' W 001°51'4 3.6
2015-Jul-19 20:33N 46°30' W 001°47'0 0.2
2015-Jul-19 19:33N 46°30' W 001°47'6 6.1
2015-Jul-19 18:33N 46°26' W 001°55'40 2.0
2015-Jul-18 22:22N 46°22' W 002°52'9 3.1
2015-Jul-18 19:31N 46°14' W 002°48'1 0.3
2015-Jul-18 14:12N 46°12' W 002°48'9 1.2
2015-Jul-18 06:33N 46°16' W 002°36'8 8.3
2015-Jul-18 05:33N 46°19' W 002°25'8 7.9
2015-Jul-18 04:31N 46°22' W 002°13'8 8.0
2015-Jul-18 03:33N 46°24' W 002°03'8 7.9
2015-Jul-18 02:33N 46°27' W 001°52'5 4.5
2015-Jul-18 01:33N 46°30' W 001°47'0 0.0
2015-Jul-18 00:33N 46°30' W 001°47'0 0.0
2015-Jul-17 23:33N 46°30' W 001°47'0 0.0
2015-Jul-17 22:33N 46°30' W 001°47'0 0.0
2015-Jul-17 21:33N 46°30' W 001°47'0 0.0
2015-Jul-17 20:33N 46°30' W 001°47'5 4.8
2015-Jul-17 19:33N 46°27' W 001°53'46 2.3
2015-Jul-16 23:31N 46°19' W 002°58'2 2.4
2015-Jul-16 22:32N 46°17' W 002°59'11 0.7
2015-Jul-16 07:25N 46°18' W 002°43'6 6.7
2015-Jul-16 06:33N 46°20' W 002°35'9 8.7
2015-Jul-16 05:33N 46°22' W 002°23'8 8.4
2015-Jul-16 04:33N 46°24' W 002°11'8 8.1
2015-Jul-16 03:33N 46°26' W 001°60'8 8.0
2015-Jul-16 02:33N 46°28' W 001°48'2 2.2
2015-Jul-16 01:33N 46°30' W 001°47'7 7.0
2015-Jul-16 00:33N 46°26' W 001°56'25 8.2
2015-Jul-15 21:30N 46°18' W 002°30'7 7.5
2015-Jul-15 20:33N 46°16' W 002°40'5 2.6
2015-Jul-15 18:32N 46°11' W 002°41'2 1.3
2015-Jul-15 17:04N 46°09' W 002°42'1 0.8
2015-Jul-15 16:13N 46°09' W 002°41'2 0.9
2015-Jul-15 14:09N 46°08' W 002°38'2 0.6
2015-Jul-15 10:31N 46°10' W 002°40'4 0.5
2015-Jul-15 03:05N 46°13' W 002°44'4 4.6
2015-Jul-15 02:13N 46°16' W 002°48'3 3.1
2015-Jul-15 01:24N 46°18' W 002°49'3 3.4
2015-Jul-15 00:31N 46°21' W 002°51'14 3.1
2015-Jul-14 20:06N 46°10' W 002°40'1 0.2
2015-Jul-14 15:13N 46°09' W 002°40'1 1.1
2015-Jul-14 14:08N 46°09' W 002°42'1 0.6
2015-Jul-14 12:28N 46°09' W 002°41'3 2.7
2015-Jul-14 11:27N 46°11' W 002°42'1 0.8
2015-Jul-14 10:29N 46°11' W 002°43'1 0.8
2015-Jul-14 09:11N 46°10' W 002°44'2 2.9
2015-Jul-14 08:26N 46°11' W 002°42'5 5.7
2015-Jul-14 07:30N 46°14' W 002°36'8 8.6
2015-Jul-14 06:32N 46°18' W 002°24'11 8.4
2015-Jul-14 05:13N 46°22' W 002°09'6 8.4
2015-Jul-14 04:33N 46°24' W 002°02'  

Dump ship's entire track history